createdAt,value
2023-10-10T00:02:30.161Z,18.08
2023-10-10T00:04:57.253Z,18.02
2023-10-10T00:07:27.934Z,17.93
2023-10-10T00:09:57.499Z,17.98
2023-10-10T00:12:30.535Z,17.86
2023-10-10T00:14:59.180Z,17.90
2023-10-10T00:17:36.194Z,17.82
2023-10-10T00:20:22.612Z,17.78
2023-10-10T00:22:51.188Z,17.85
2023-10-10T00:25:20.427Z,17.74
2023-10-10T00:27:57.019Z,17.57
2023-10-10T00:30:24.023Z,17.72
2023-10-10T00:32:53.314Z,17.60
2023-10-10T00:35:20.253Z,17.55
2023-10-10T00:37:47.140Z,17.49
2023-10-10T00:40:26.664Z,17.39
2023-10-10T00:42:53.532Z,17.37
2023-10-10T00:45:22.677Z,17.42
2023-10-10T00:47:54.079Z,17.39
2023-10-10T00:50:26.241Z,17.40
2023-10-10T00:52:57.102Z,17.26
2023-10-10T00:55:28.532Z,16.88
2023-10-10T00:58:00.440Z,17.26
2023-10-10T01:00:32.142Z,17.06
2023-10-10T01:03:22.418Z,17.19
2023-10-10T01:05:56.604Z,17.14
2023-10-10T01:08:35.178Z,16.98
2023-10-10T01:11:06.337Z,17.01
2023-10-10T01:13:35.104Z,17.05
2023-10-10T01:16:06.425Z,16.97
2023-10-10T01:18:53.232Z,16.95
2023-10-10T01:21:32.006Z,16.81
2023-10-10T01:24:07.316Z,16.83
2023-10-10T01:26:46.165Z,16.78
2023-10-10T01:29:23.083Z,16.76
2023-10-10T01:31:52.833Z,16.75
2023-10-10T01:34:32.651Z,16.80
2023-10-10T01:37:15.851Z,16.82
2023-10-10T01:39:56.304Z,16.80
2023-10-10T01:42:33.116Z,16.67
2023-10-10T01:45:09.696Z,16.74
2023-10-10T01:47:41.352Z,16.61
2023-10-10T01:50:12.203Z,16.29
2023-10-10T01:52:39.608Z,16.51
2023-10-10T01:55:07.325Z,16.45
2023-10-10T01:57:34.165Z,16.47
2023-10-10T02:00:20.960Z,16.35
2023-10-10T02:02:51.301Z,16.43
2023-10-10T02:05:36.423Z,16.53
2023-10-10T02:08:12.349Z,16.54
2023-10-10T02:10:47.643Z,16.50
2023-10-10T02:13:16.076Z,16.47
2023-10-10T02:15:43.364Z,16.29
2023-10-10T02:18:33.847Z,16.43
2023-10-10T02:21:07.573Z,16.30
2023-10-10T02:23:35.482Z,16.37
2023-10-10T02:26:30.064Z,16.36
2023-10-10T02:29:15.931Z,16.21
2023-10-10T02:31:46.390Z,16.21
2023-10-10T02:34:13.350Z,16.05
2023-10-10T02:36:42.493Z,16.13
2023-10-10T02:39:18.406Z,16.22
2023-10-10T02:41:52.256Z,16.08
2023-10-10T02:44:37.347Z,15.91
2023-10-10T02:47:04.406Z,16.07
2023-10-10T02:49:31.567Z,15.97
2023-10-10T02:52:07.769Z,15.96
2023-10-10T02:54:35.779Z,15.93
2023-10-10T02:57:26.716Z,15.76
2023-10-10T03:00:01.469Z,16.03
2023-10-10T03:02:31.822Z,15.78
2023-10-10T03:05:02.804Z,16.04
2023-10-10T03:07:31.538Z,15.77
2023-10-10T03:10:04.850Z,16.02
2023-10-10T03:12:33.044Z,15.88
2023-10-10T03:15:19.086Z,15.83
2023-10-10T03:17:57.153Z,15.97
2023-10-10T03:20:46.865Z,15.91
2023-10-10T03:23:14.009Z,15.83
2023-10-10T03:25:48.809Z,15.88
2023-10-10T03:28:20.314Z,15.64
2023-10-10T03:31:06.903Z,15.66
2023-10-10T03:33:37.612Z,15.58
2023-10-10T03:36:21.046Z,15.51
2023-10-10T03:38:52.367Z,15.70
2023-10-10T03:41:27.085Z,15.68
2023-10-10T03:44:14.227Z,15.41
2023-10-10T03:46:59.180Z,15.41
2023-10-10T03:49:45.070Z,15.50
2023-10-10T03:52:31.439Z,15.52
2023-10-10T03:55:17.453Z,15.41
2023-10-10T03:58:03.475Z,15.46
2023-10-10T04:00:48.742Z,15.36
2023-10-10T04:03:34.455Z,15.26
2023-10-10T04:06:24.704Z,15.34
2023-10-10T04:09:10.687Z,15.29
2023-10-10T04:11:56.226Z,15.13
2023-10-10T04:14:43.770Z,15.09
2023-10-10T04:17:32.017Z,14.94
2023-10-10T04:20:17.496Z,15.05
2023-10-10T04:23:02.976Z,14.94
2023-10-10T04:25:48.534Z,14.92
2023-10-10T04:28:36.297Z,14.99
2023-10-10T04:31:27.904Z,14.79
2023-10-10T04:34:13.386Z,14.86
2023-10-10T04:36:58.950Z,14.82
2023-10-10T04:39:44.488Z,14.62
2023-10-10T04:42:30.061Z,14.72
2023-10-10T04:45:18.284Z,14.68
2023-10-10T04:48:03.736Z,14.68
2023-10-10T04:50:49.136Z,14.50
2023-10-10T04:53:34.941Z,14.54
2023-10-10T04:56:20.651Z,14.57
2023-10-10T04:59:06.268Z,14.58
2023-10-10T05:01:51.906Z,14.53
2023-10-10T05:04:37.510Z,14.34
2023-10-10T05:07:23.047Z,14.38
2023-10-10T05:10:08.559Z,14.36
2023-10-10T05:12:54.238Z,14.43
2023-10-10T05:15:41.816Z,14.28
2023-10-10T05:18:29.913Z,14.18
2023-10-10T05:21:15.490Z,14.22
2023-10-10T05:23:49.285Z,14.16
2023-10-10T05:26:20.570Z,13.71
2023-10-10T05:28:48.721Z,14.10
2023-10-10T05:31:21.118Z,14.10
2023-10-10T05:33:48.854Z,14.17
2023-10-10T05:36:16.316Z,14.02
2023-10-10T05:38:47.040Z,14.05
2023-10-10T05:41:14.127Z,14.16
2023-10-10T05:43:41.186Z,13.73
2023-10-10T05:46:08.233Z,14.11
2023-10-10T05:48:37.141Z,14.10
2023-10-10T05:51:10.174Z,14.00
2023-10-10T05:53:38.026Z,13.51
2023-10-10T05:56:14.568Z,13.92
2023-10-10T05:58:46.270Z,13.85
2023-10-10T06:01:15.375Z,13.55
2023-10-10T06:03:43.428Z,13.94
2023-10-10T06:06:14.530Z,13.94
2023-10-10T06:08:43.537Z,13.72
2023-10-10T06:11:11.614Z,13.48
2023-10-10T06:13:41.549Z,13.64
2023-10-10T06:16:17.134Z,13.93
2023-10-10T06:18:49.315Z,13.38
2023-10-10T06:21:16.635Z,13.67
2023-10-10T06:23:46.366Z,13.97
2023-10-10T06:26:16.509Z,13.52
2023-10-10T06:28:49.618Z,13.53
2023-10-10T06:31:22.101Z,13.86
2023-10-10T06:33:52.663Z,13.92
2023-10-10T06:36:23.320Z,14.07
2023-10-10T06:39:13.056Z,13.70
2023-10-10T06:41:51.713Z,13.73
2023-10-10T06:44:33.837Z,13.97
2023-10-10T06:47:02.271Z,14.02
2023-10-10T06:49:44.890Z,13.99
2023-10-10T06:52:19.823Z,14.06
2023-10-10T06:54:58.492Z,14.08
2023-10-10T06:57:46.051Z,14.09
2023-10-10T07:00:29.805Z,14.12
2023-10-10T07:02:58.813Z,14.00
2023-10-10T07:05:34.918Z,14.27
2023-10-10T07:08:14.181Z,14.49
2023-10-10T07:10:44.750Z,-141.75
2023-10-10T07:13:15.735Z,-141.75
2023-10-10T07:15:43.712Z,-141.75
2023-10-10T07:18:16.178Z,-141.75
2023-10-10T07:21:05.598Z,-141.75
2023-10-10T07:23:40.929Z,-141.75
2023-10-10T07:26:20.322Z,-141.75
2023-10-10T07:28:49.746Z,14.49
2023-10-10T07:31:23.609Z,14.82
2023-10-10T07:34:05.444Z,15.05
2023-10-10T07:36:32.896Z,14.86
2023-10-10T07:39:18.514Z,15.31
2023-10-10T07:41:48.709Z,15.38
2023-10-10T07:44:18.413Z,14.81
2023-10-10T07:47:16.647Z,15.31
2023-10-10T07:49:52.477Z,15.30
2023-10-10T07:52:21.856Z,15.33
2023-10-10T07:55:05.241Z,15.49
2023-10-10T07:57:52.142Z,15.18
2023-10-10T08:00:19.917Z,15.46
2023-10-10T08:02:54.988Z,15.63
2023-10-10T08:05:22.065Z,15.78
2023-10-10T08:07:52.255Z,15.83
2023-10-10T08:10:31.980Z,15.83
2023-10-10T08:13:01.883Z,15.97
2023-10-10T08:15:31.775Z,16.23
2023-10-10T08:18:00.876Z,16.36
2023-10-10T08:20:35.713Z,16.61
2023-10-10T08:23:06.480Z,16.40
2023-10-10T08:25:34.390Z,16.39
2023-10-10T08:28:02.602Z,16.70
2023-10-10T08:30:31.968Z,17.02
2023-10-10T08:33:02.928Z,17.09
2023-10-10T08:35:31.524Z,17.17
2023-10-10T08:38:05.957Z,17.24
2023-10-10T08:40:37.470Z,17.30
2023-10-10T08:43:13.785Z,17.34
2023-10-10T08:45:51.378Z,17.44
2023-10-10T08:48:27.794Z,17.52
2023-10-10T08:51:05.266Z,17.61
2023-10-10T08:53:44.080Z,17.68
2023-10-10T08:56:16.585Z,17.72
2023-10-10T08:58:43.563Z,17.83
2023-10-10T09:01:12.930Z,17.90
2023-10-10T09:03:46.840Z,18.01
2023-10-10T09:06:24.202Z,18.11
2023-10-10T09:08:53.326Z,18.16
2023-10-10T09:11:24.763Z,18.22
2023-10-10T09:13:53.978Z,18.28
2023-10-10T09:16:43.055Z,18.34
2023-10-10T09:19:12.886Z,18.41
2023-10-10T09:21:52.650Z,18.50
2023-10-10T09:24:31.007Z,18.52
2023-10-10T09:26:59.325Z,18.58
2023-10-10T09:29:35.765Z,18.67
2023-10-10T09:32:07.620Z,18.74
2023-10-10T09:34:42.869Z,18.81
2023-10-10T09:37:15.419Z,18.88
2023-10-10T09:39:56.152Z,18.95
2023-10-10T09:42:25.417Z,19.00
2023-10-10T09:45:15.646Z,19.07
2023-10-10T09:48:06.852Z,19.11
2023-10-10T09:50:39.206Z,19.14
2023-10-10T09:53:21.305Z,19.26
2023-10-10T09:55:55.006Z,19.32
2023-10-10T09:58:28.064Z,19.34
2023-10-10T10:01:14.246Z,19.43
2023-10-10T10:03:51.353Z,19.39
2023-10-10T10:06:45.996Z,19.53
2023-10-10T10:09:21.920Z,19.62
2023-10-10T10:12:21.123Z,19.69
2023-10-10T10:15:01.302Z,19.74
2023-10-10T10:17:55.821Z,19.78
2023-10-10T10:20:51.418Z,19.86
2023-10-10T10:23:35.336Z,19.88
2023-10-10T10:26:12.267Z,20.00
2023-10-10T10:28:43.820Z,20.02
2023-10-10T10:31:29.820Z,20.16
2023-10-10T10:34:11.864Z,20.26
2023-10-10T10:36:57.735Z,20.33
2023-10-10T10:39:36.424Z,20.33
2023-10-10T10:42:16.971Z,20.47
2023-10-10T10:44:46.842Z,20.52
2023-10-10T10:47:40.494Z,20.59
2023-10-10T10:50:42.400Z,-141.75
2023-10-10T10:53:32.641Z,-141.75
2023-10-10T10:56:19.772Z,-141.75
2023-10-10T10:58:57.675Z,-141.75
2023-10-10T11:01:29.157Z,-141.75
2023-10-10T11:03:58.495Z,-141.75
2023-10-10T11:06:31.643Z,-141.75
2023-10-10T11:09:11.198Z,-141.75
2023-10-10T11:11:38.457Z,-141.75
2023-10-10T11:14:20.136Z,21.26
2023-10-10T11:16:48.019Z,21.36
2023-10-10T11:19:20.483Z,21.36
2023-10-10T11:21:50.242Z,21.47
2023-10-10T11:24:27.462Z,21.52
2023-10-10T11:27:08.568Z,21.57
2023-10-10T11:29:46.746Z,21.52
2023-10-10T11:32:25.233Z,21.53
2023-10-10T11:35:33.329Z,21.68
2023-10-10T11:38:18.217Z,21.73
2023-10-10T11:40:53.715Z,21.74
2023-10-10T11:43:28.920Z,21.72
2023-10-10T11:45:58.125Z,21.82
2023-10-10T11:48:32.263Z,21.85
2023-10-10T11:51:03.898Z,21.87
2023-10-10T11:53:38.601Z,21.84
2023-10-10T11:56:18.752Z,21.92
2023-10-10T11:58:54.160Z,21.87
2023-10-10T12:01:58.892Z,21.91
2023-10-10T12:04:34.827Z,21.98
2023-10-10T12:07:07.284Z,21.99
2023-10-10T12:09:34.937Z,22.01
2023-10-10T12:12:06.390Z,22.01
2023-10-10T12:14:43.831Z,22.05
2023-10-10T12:17:16.273Z,22.07
2023-10-10T12:19:58.366Z,22.07
2023-10-10T12:22:25.767Z,22.11
2023-10-10T12:24:56.333Z,22.12
2023-10-10T12:27:31.611Z,22.13
2023-10-10T12:30:06.344Z,22.14
2023-10-10T12:32:40.251Z,22.08
2023-10-10T12:35:11.450Z,22.11
2023-10-10T12:37:47.584Z,22.13
2023-10-10T12:40:15.945Z,22.14
2023-10-10T12:42:44.976Z,22.14
2023-10-10T12:45:16.323Z,22.14
2023-10-10T12:47:44.996Z,22.13
2023-10-10T12:50:16.663Z,22.16
2023-10-10T12:53:03.625Z,22.11
2023-10-10T12:55:35.636Z,22.10
2023-10-10T12:58:11.747Z,22.18
2023-10-10T13:00:51.361Z,22.17
2023-10-10T13:03:32.354Z,22.18
2023-10-10T13:06:04.574Z,22.18
2023-10-10T13:08:55.638Z,22.18
2023-10-10T13:11:34.184Z,22.17
2023-10-10T13:14:26.142Z,22.17
2023-10-10T13:17:07.071Z,22.11
2023-10-10T13:19:38.552Z,22.18
2023-10-10T13:22:22.268Z,22.20
2023-10-10T13:24:52.765Z,22.18
2023-10-10T13:27:22.983Z,22.22
2023-10-10T13:29:54.548Z,22.22
2023-10-10T13:32:26.127Z,22.23
2023-10-10T13:34:53.781Z,22.23
2023-10-10T13:37:23.532Z,22.18
2023-10-10T13:39:56.132Z,22.16
2023-10-10T13:42:25.368Z,22.26
2023-10-10T13:45:10.782Z,22.18
2023-10-10T13:47:42.694Z,22.23
2023-10-10T13:50:28.494Z,22.21
2023-10-10T13:52:58.368Z,22.07
2023-10-10T13:55:25.236Z,22.17
2023-10-10T13:57:55.155Z,22.10
2023-10-10T14:00:31.311Z,22.14
2023-10-10T14:03:07.454Z,22.12
2023-10-10T14:05:43.063Z,22.13
2023-10-10T14:08:11.551Z,22.12
2023-10-10T14:10:42.643Z,22.11
2023-10-10T14:13:29.676Z,22.08
2023-10-10T14:16:02.817Z,22.04
2023-10-10T14:18:32.582Z,22.11
2023-10-10T14:21:09.761Z,22.11
2023-10-10T14:23:42.190Z,22.03
2023-10-10T14:26:18.750Z,22.05
2023-10-10T14:28:54.430Z,22.09
2023-10-10T14:31:25.243Z,22.03
2023-10-10T14:33:52.726Z,22.12
2023-10-10T14:36:24.651Z,22.18
2023-10-10T14:39:01.442Z,22.20
2023-10-10T14:41:31.733Z,22.14
2023-10-10T14:44:01.890Z,22.18
2023-10-10T14:46:35.661Z,22.21
2023-10-10T14:49:30.413Z,22.22
2023-10-10T14:52:02.077Z,22.20
2023-10-10T14:54:39.207Z,22.22
2023-10-10T14:57:25.707Z,22.19
2023-10-10T14:59:57.306Z,22.17
2023-10-10T15:02:28.461Z,22.17
2023-10-10T15:05:00.202Z,22.22
2023-10-10T15:07:29.680Z,22.18
2023-10-10T15:09:59.602Z,22.20
2023-10-10T15:12:31.413Z,22.19
2023-10-10T15:14:58.866Z,22.16
2023-10-10T15:17:28.546Z,22.16
2023-10-10T15:19:57.782Z,22.13
2023-10-10T15:22:26.516Z,22.13
2023-10-10T15:25:02.698Z,22.12
2023-10-10T15:27:31.805Z,22.08
2023-10-10T15:30:01.145Z,22.01
2023-10-10T15:32:35.528Z,22.06
2023-10-10T15:35:04.897Z,22.05
2023-10-10T15:37:43.465Z,22.00
2023-10-10T15:40:22.956Z,22.00
2023-10-10T15:42:55.950Z,21.95
2023-10-10T15:45:23.100Z,21.89
2023-10-10T15:47:56.076Z,21.85
2023-10-10T15:50:23.463Z,21.86
2023-10-10T15:52:53.042Z,21.77
2023-10-10T15:55:25.762Z,21.80
2023-10-10T15:57:54.064Z,21.76
2023-10-10T16:00:34.392Z,21.71
2023-10-10T16:03:08.180Z,21.67
2023-10-10T16:05:43.071Z,21.58
2023-10-10T16:08:15.372Z,21.57
2023-10-10T16:10:46.822Z,21.48
2023-10-10T16:13:13.646Z,21.52
2023-10-10T16:15:45.261Z,21.51
2023-10-10T16:18:12.249Z,21.49
2023-10-10T16:20:43.487Z,21.44
2023-10-10T16:23:12.758Z,21.35
2023-10-10T16:25:41.971Z,21.34
2023-10-10T16:28:13.357Z,21.23
2023-10-10T16:30:45.171Z,21.17
2023-10-10T16:33:21.405Z,21.18
2023-10-10T16:35:53.031Z,21.09
2023-10-10T16:38:23.540Z,21.03
2023-10-10T16:40:55.145Z,20.95
2023-10-10T16:43:29.324Z,20.91
2023-10-10T16:46:03.625Z,20.84
2023-10-10T16:48:32.809Z,20.78
2023-10-10T16:51:03.194Z,20.71
2023-10-10T16:53:35.583Z,20.64
2023-10-10T16:56:08.443Z,20.61
2023-10-10T16:58:37.564Z,20.46
2023-10-10T17:01:13.460Z,20.40
2023-10-10T17:03:46.969Z,20.40
2023-10-10T17:06:26.935Z,20.34
2023-10-10T17:09:05.802Z,20.25
2023-10-10T17:11:39.380Z,20.16
2023-10-10T17:14:08.860Z,20.12
2023-10-10T17:16:35.904Z,20.02
2023-10-10T17:19:22.740Z,19.98
2023-10-10T17:21:54.444Z,19.92
2023-10-10T17:24:21.412Z,19.87
2023-10-10T17:26:50.467Z,19.81
2023-10-10T17:29:24.863Z,19.76
2023-10-10T17:31:54.462Z,19.64
2023-10-10T17:34:34.545Z,19.54
2023-10-10T17:37:01.701Z,19.51
2023-10-10T17:39:36.116Z,19.52
2023-10-10T17:42:03.775Z,19.44
2023-10-10T17:44:39.547Z,19.27
2023-10-10T17:47:09.073Z,19.22
2023-10-10T17:49:40.481Z,19.26
2023-10-10T17:52:12.477Z,19.17
2023-10-10T17:54:42.667Z,19.11
2023-10-10T17:57:15.555Z,19.07
2023-10-10T17:59:47.206Z,19.00
2023-10-10T18:02:16.618Z,18.95
2023-10-10T18:04:44.019Z,18.82
2023-10-10T18:07:13.896Z,18.76
2023-10-10T18:09:45.814Z,18.65
2023-10-10T18:12:19.911Z,18.66
2023-10-10T18:14:53.095Z,18.58
2023-10-10T18:17:23.196Z,18.44
2023-10-10T18:19:52.628Z,18.34
2023-10-10T18:22:19.938Z,18.35
2023-10-10T18:24:49.201Z,18.29
2023-10-10T18:27:18.616Z,18.24
2023-10-10T18:29:49.659Z,18.05
2023-10-10T18:32:16.860Z,18.07
2023-10-10T18:34:48.298Z,17.94
2023-10-10T18:37:17.637Z,17.95
2023-10-10T18:39:44.516Z,17.92
2023-10-10T18:42:16.635Z,17.84
2023-10-10T18:44:43.581Z,-141.75
2023-10-10T18:47:17.956Z,-141.75
2023-10-10T18:49:47.076Z,-141.75
2023-10-10T18:52:16.202Z,-141.75
2023-10-10T18:54:46.405Z,-141.75
2023-10-10T18:57:15.741Z,-141.75
2023-10-10T18:59:44.279Z,-141.75
2023-10-10T19:02:18.723Z,-141.75
2023-10-10T19:04:47.926Z,-141.75
2023-10-10T19:07:17.522Z,-141.75
2023-10-10T19:09:51.257Z,-141.75
2023-10-10T19:12:18.125Z,-141.75
2023-10-10T19:14:49.564Z,-141.75
2023-10-10T19:17:16.779Z,-141.75
2023-10-10T19:19:46.006Z,-141.75
2023-10-10T19:22:15.335Z,-141.75
2023-10-10T19:24:42.280Z,-141.75
2023-10-10T19:27:11.898Z,-141.75
2023-10-10T19:29:41.421Z,-141.75
2023-10-10T19:32:08.410Z,-141.75
2023-10-10T19:34:37.803Z,-141.75
2023-10-10T19:37:04.991Z,-141.75
2023-10-10T19:39:36.597Z,-141.75
2023-10-10T19:42:08.415Z,-141.75
2023-10-10T19:44:37.825Z,-141.75
2023-10-10T19:47:11.751Z,-141.75
2023-10-10T19:49:41.032Z,-141.75
2023-10-10T19:52:07.964Z,-141.75
2023-10-10T19:54:36.262Z,-141.75
2023-10-10T19:57:05.728Z,-141.75
2023-10-10T19:59:35.193Z,-141.75
2023-10-10T20:02:02.421Z,-141.75
2023-10-10T20:04:39.720Z,16.56
2023-10-10T20:07:14.876Z,16.47
2023-10-10T20:09:46.989Z,16.50
2023-10-10T20:12:16.230Z,16.48
2023-10-10T20:14:45.540Z,16.48
2023-10-10T20:17:17.436Z,16.52
2023-10-10T20:19:44.528Z,16.48
2023-10-10T20:22:16.028Z,16.47
2023-10-10T20:24:43.125Z,16.43
2023-10-10T20:27:15.000Z,16.43
2023-10-10T20:29:46.375Z,16.41
2023-10-10T20:32:13.802Z,16.39
2023-10-10T20:34:46.164Z,16.31
2023-10-10T20:37:15.490Z,16.38
2023-10-10T20:39:42.556Z,16.37
2023-10-10T20:42:09.700Z,-141.75
2023-10-10T20:44:37.195Z,-141.75
2023-10-10T20:47:05.146Z,-141.75
2023-10-10T20:49:39.315Z,-141.75
2023-10-10T20:52:11.471Z,-141.75
2023-10-10T20:54:42.580Z,-141.75
2023-10-10T20:57:15.219Z,-141.75
2023-10-10T20:59:43.958Z,-141.75
2023-10-10T21:02:15.908Z,-141.75
2023-10-10T21:04:46.375Z,-141.75
2023-10-10T21:07:18.195Z,-141.75
2023-10-10T21:09:45.475Z,-141.75
2023-10-10T21:12:17.290Z,-141.75
2023-10-10T21:14:46.630Z,-141.75
2023-10-10T21:17:15.181Z,-141.75
2023-10-10T21:19:46.447Z,-141.75
2023-10-10T21:22:17.977Z,-141.75
2023-10-10T21:24:52.314Z,-141.75
2023-10-10T21:27:21.406Z,-141.75
2023-10-10T21:29:53.114Z,-141.75
2023-10-10T21:32:22.600Z,-141.75
2023-10-10T21:34:51.926Z,-141.75
2023-10-10T21:37:24.480Z,-141.75
2023-10-10T21:39:54.393Z,-141.75
2023-10-10T21:42:24.790Z,-141.75
2023-10-10T21:44:56.741Z,-141.75
2023-10-10T21:47:28.513Z,-141.75
2023-10-10T21:49:57.810Z,-141.75
2023-10-10T21:52:24.741Z,-141.75
2023-10-10T21:54:58.986Z,-141.75
2023-10-10T21:57:26.328Z,-141.75
2023-10-10T21:59:55.963Z,-141.75
2023-10-10T22:02:22.843Z,-141.75
2023-10-10T22:04:52.339Z,-141.75
2023-10-10T22:07:29.759Z,-141.75
2023-10-10T22:09:57.164Z,-141.75
2023-10-10T22:12:28.776Z,-141.75
2023-10-10T22:15:00.942Z,-141.75
2023-10-10T22:17:32.927Z,-141.75
2023-10-10T22:20:05.814Z,-141.75
2023-10-10T22:22:35.497Z,-141.75
2023-10-10T22:25:12.021Z,-141.75
2023-10-10T22:27:40.537Z,-141.75
2023-10-10T22:30:13.889Z,-141.75
2023-10-10T22:32:45.894Z,-141.75
2023-10-10T22:35:19.777Z,-141.75
2023-10-10T22:38:01.691Z,-141.75
2023-10-10T22:40:29.079Z,-141.75
2023-10-10T22:42:58.070Z,-141.75
2023-10-10T22:45:25.135Z,-141.75
2023-10-10T22:47:55.203Z,-141.75
2023-10-10T22:50:27.822Z,-141.75
2023-10-10T22:52:55.124Z,-141.75
2023-10-10T22:55:28.589Z,-141.75
2023-10-10T22:58:01.991Z,-141.75
2023-10-10T23:03:14.216Z,-141.75
2023-10-10T23:05:44.553Z,-141.75
2023-10-10T23:08:13.010Z,-141.75
2023-10-10T23:10:44.725Z,-141.75
2023-10-10T23:13:16.992Z,-141.75
2023-10-10T23:15:50.088Z,-141.75
2023-10-10T23:18:18.128Z,-141.75
2023-10-10T23:20:45.831Z,-141.75
2023-10-10T23:23:17.399Z,-141.75
2023-10-10T23:25:49.883Z,-141.75
2023-10-10T23:28:16.793Z,-141.75
2023-10-10T23:30:43.873Z,-141.75
2023-10-10T23:33:13.103Z,-141.75
2023-10-10T23:35:41.060Z,-141.75
2023-10-10T23:38:08.108Z,-141.75
2023-10-10T23:40:47.180Z,-141.75
2023-10-10T23:43:23.112Z,-141.75
2023-10-10T23:45:58.601Z,-141.75
2023-10-10T23:48:32.642Z,-141.75
2023-10-10T23:51:07.971Z,-141.75
2023-10-10T23:53:38.401Z,-141.75
2023-10-10T23:56:06.721Z,-141.75
2023-10-10T23:58:33.917Z,-141.75
